Carbondale, Illinois
Current Conditions -  °F | °C
As of 10:52 AM on Tuesday 21 Oct 2014 (Local Time) from KMDH Reporting Station
Clear Clear  
Wind Chill: 62°   Ceiling: Unl
Heat Index: 62°   Visibility: 10mi
Dew Point: 47°   Wind: 8mph
Humidity: 58%   Direction: 330°NNW
Pressure: 30.11"   Gusts: NA
Location:  37.73°N, 89.21°W
Report Text: KMDH 211552Z 33007KT 10SM CLR 17/08 A3011 RMK AO2 SLP196 T01670083 $
Loading
Personal Weather Stations






























Interactive Weather Map
Tropical Storm Tracking
New forecast layout! Learn more

10-Day Weather Forecast

Advertisements
Track Severe Weather on mobile